Terminal Aerodrome Forecast
Issued by NWS Detroit/Pontiac, MI

Home | Current Version | Previous Version | Text Only | Print | Product List | Glossary On
Versions: 1 2 3 4 5 6 7 8 9 10 11 12 13 14 15 16 17 18 19 20 21 22 23 24 25 26 27 28 29 30 31
340
FTUS43 KDTX 290945 AAC
TAFDTW
TAF AMD
KDTW 290945Z 2910/3012 05012KT 3SM -SHRA BR OVC007
     FM291600 07013KT 6SM -SHRA OVC015
     FM292200 05008KT 3SM -SHRA BR OVC007=

USA.gov is the U.S. government's official web portal to all federal, state and local government web resources and services.